Time,TemperatureF,DewpointF,PressureIn,WindDirection,WindDirectionDegrees,WindSpeedMPH,WindSpeedGustMPH,Humidity,HourlyPrecipIn,Conditions,Clouds,dailyrainin,SoftwareType,DateUTC
2013-09-04 00:14:00,71.0,-99.9,-100.00,WSW,252,7.0,21.0,-999,-99.99,,,-99.99,,2013-09-04 04:14:00,
2013-09-04 00:24:00,71.0,-99.9,-100.00,WSW,252,7.0,21.0,-999,-99.99,,,-99.99,,2013-09-04 04:24:00,
2013-09-04 00:33:00,71.0,-99.9,-100.00,WSW,252,7.0,21.0,-999,-99.99,,,-99.99,,2013-09-04 04:33:00,
2013-09-04 00:40:00,72.0,-99.9,-100.00,West,271,7.0,18.0,-999,-99.99,,,-99.99,,2013-09-04 04:40:00,
2013-09-04 01:13:00,72.0,-99.9,-100.00,West,271,7.0,18.0,-999,-99.99,,,-99.99,,2013-09-04 05:13:00,
2013-09-04 01:23:00,72.0,-99.9,-100.00,West,271,7.0,18.0,-999,-99.99,,,-99.99,,2013-09-04 05:23:00,
2013-09-04 01:34:00,72.0,-99.9,-100.00,West,271,7.0,18.0,-999,-99.99,,,-99.99,,2013-09-04 05:34:00,
2013-09-04 02:22:00,71.0,-99.9,-100.00,West,268,5.0,15.0,-999,-99.99,,,-99.99,,2013-09-04 06:22:00,
2013-09-04 02:32:00,71.0,-99.9,-100.00,West,268,5.0,15.0,-999,-99.99,,,-99.99,,2013-09-04 06:32:00,
2013-09-04 03:12:00,70.0,-99.9,-100.00,North,350,12.0,20.0,-999,-99.99,,,-99.99,,2013-09-04 07:12:00,
2013-09-04 03:22:00,71.0,-99.9,-100.00,NNW,340,8.0,25.0,-999,-99.99,,,-99.99,,2013-09-04 07:22:00,
2013-09-04 03:42:00,71.0,-99.9,-100.00,NNW,340,8.0,25.0,-999,-99.99,,,-99.99,,2013-09-04 07:42:00,
2013-09-04 03:52:00,71.0,-99.9,-100.00,NNW,340,8.0,25.0,-999,-99.99,,,-99.99,,2013-09-04 07:52:00,
2013-09-04 04:02:00,71.0,-99.9,-100.00,NNW,340,8.0,25.0,-999,-99.99,,,-99.99,,2013-09-04 08:02:00,
2013-09-04 04:43:00,61.0,-99.9,-100.00,NNE,22,25.0,0.0,-999,-99.99,,,-99.99,,2013-09-04 08:43:00,
2013-09-04 04:52:00,61.0,-99.9,-100.00,NNE,22,25.0,0.0,-999,-99.99,,,-99.99,,2013-09-04 08:52:00,
2013-09-04 05:12:00,58.0,-99.9,-100.00,NNE,29,22.0,29.0,-999,-99.99,,,-99.99,,2013-09-04 09:12:00,
2013-09-04 05:22:00,58.0,-99.9,-100.00,NNE,29,22.0,29.0,-999,-99.99,,,-99.99,,2013-09-04 09:22:00,
2013-09-04 05:40:00,57.0,-99.9,-100.00,NE,37,20.0,23.0,-999,-99.99,,,-99.99,,2013-09-04 09:40:00,
2013-09-04 05:43:00,58.0,-99.9,-100.00,NNE,29,20.0,25.0,-999,-99.99,,,-99.99,,2013-09-04 09:43:00,
2013-09-04 05:53:00,58.0,-99.9,-100.00,NNE,29,20.0,25.0,-999,-99.99,,,-99.99,,2013-09-04 09:53:00,
2013-09-04 06:12:00,57.0,-99.9,-100.00,NE,37,20.0,23.0,-999,-99.99,,,-99.99,,2013-09-04 10:12:00,
2013-09-04 06:23:00,57.0,-99.9,-100.00,NE,37,20.0,23.0,-999,-99.99,,,-99.99,,2013-09-04 10:23:00,
2013-09-04 06:33:00,57.0,-99.9,-100.00,NE,37,20.0,23.0,-999,-99.99,,,-99.99,,2013-09-04 10:33:00,
2013-09-04 06:40:00,56.0,-99.9,-100.00,NE,37,15.0,19.0,-999,-99.99,,,-99.99,,2013-09-04 10:40:00,
2013-09-04 07:23:00,56.0,-99.9,-100.00,NE,37,15.0,19.0,-999,-99.99,,,-99.99,,2013-09-04 11:23:00,
2013-09-04 07:33:00,56.0,-99.9,-100.00,NE,37,15.0,19.0,-999,-99.99,,,-99.99,,2013-09-04 11:33:00,
2013-09-04 07:40:00,55.0,-99.9,-100.00,NE,40,14.0,16.0,-999,-99.99,,,-99.99,,2013-09-04 11:40:00,
2013-09-04 08:12:00,55.0,-99.9,-100.00,NE,40,14.0,16.0,-999,-99.99,,,-99.99,,2013-09-04 12:12:00,
2013-09-04 08:22:00,55.0,-99.9,-100.00,NE,40,14.0,16.0,-999,-99.99,,,-99.99,,2013-09-04 12:22:00,
2013-09-04 08:32:00,55.0,-99.9,-100.00,NE,40,14.0,16.0,-999,-99.99,,,-99.99,,2013-09-04 12:32:00,
2013-09-04 08:40:00,55.0,-99.9,-100.00,NNE,32,14.0,16.0,-999,-99.99,,,-99.99,,2013-09-04 12:40:00,
2013-09-04 09:22:00,55.0,-99.9,-100.00,NNE,32,14.0,16.0,-999,-99.99,,,-99.99,,2013-09-04 13:22:00,
2013-09-04 09:32:00,55.0,-99.9,-100.00,NNE,32,14.0,16.0,-999,-99.99,,,-99.99,,2013-09-04 13:32:00,
2013-09-04 09:40:00,55.0,-99.9,-100.00,NE,43,14.0,17.0,-999,-99.99,,,-99.99,,2013-09-04 13:40:00,
2013-09-04 10:11:00,55.0,-99.9,-100.00,NE,43,14.0,17.0,-999,-99.99,,,-99.99,,2013-09-04 14:11:00,
2013-09-04 10:22:00,55.0,-99.9,-100.00,NE,43,14.0,17.0,-999,-99.99,,,-99.99,,2013-09-04 14:22:00,
2013-09-04 10:32:00,55.0,-99.9,-100.00,NE,43,14.0,17.0,-999,-99.99,,,-99.99,,2013-09-04 14:32:00,
2013-09-04 10:40:00,55.0,-99.9,-100.00,NE,47,10.0,15.0,-999,-99.99,,,-99.99,,2013-09-04 14:40:00,
2013-09-04 11:12:00,55.0,-99.9,-100.00,NE,47,10.0,15.0,-999,-99.99,,,-99.99,,2013-09-04 15:12:00,
2013-09-04 11:22:00,55.0,-99.9,-100.00,NE,47,10.0,15.0,-999,-99.99,,,-99.99,,2013-09-04 15:22:00,
2013-09-04 11:33:00,55.0,-99.9,-100.00,NE,47,10.0,15.0,-999,-99.99,,,-99.99,,2013-09-04 15:33:00,
2013-09-04 11:40:00,55.0,-99.9,-100.00,NNE,22,11.0,13.0,-999,-99.99,,,-99.99,,2013-09-04 15:40:00,
2013-09-04 12:13:00,55.0,-99.9,-100.00,NNE,22,11.0,13.0,-999,-99.99,,,-99.99,,2013-09-04 16:13:00,
2013-09-04 12:24:00,55.0,-99.9,-100.00,NNE,22,11.0,13.0,-999,-99.99,,,-99.99,,2013-09-04 16:24:00,
2013-09-04 12:34:00,55.0,-99.9,-100.00,NNE,22,11.0,13.0,-999,-99.99,,,-99.99,,2013-09-04 16:34:00,
2013-09-04 12:40:00,56.0,-99.9,-100.00,NNE,23,8.0,12.0,-999,-99.99,,,-99.99,,2013-09-04 16:40:00,
2013-09-04 13:13:00,56.0,-99.9,-100.00,NNE,23,8.0,12.0,-999,-99.99,,,-99.99,,2013-09-04 17:13:00,
2013-09-04 13:23:00,56.0,-99.9,-100.00,NNE,23,8.0,12.0,-999,-99.99,,,-99.99,,2013-09-04 17:23:00,
2013-09-04 13:34:00,56.0,-99.9,-100.00,NNE,23,8.0,12.0,-999,-99.99,,,-99.99,,2013-09-04 17:34:00,
2013-09-04 13:40:00,56.0,-99.9,-100.00,NE,40,6.0,9.0,-999,-99.99,,,-99.99,,2013-09-04 17:40:00,
2013-09-04 14:13:00,56.0,-99.9,-100.00,NE,40,6.0,9.0,-999,-99.99,,,-99.99,,2013-09-04 18:13:00,
2013-09-04 14:22:00,56.0,-99.9,-100.00,NE,40,6.0,9.0,-999,-99.99,,,-99.99,,2013-09-04 18:22:00,
2013-09-04 14:32:00,56.0,-99.9,-100.00,NE,40,6.0,9.0,-999,-99.99,,,-99.99,,2013-09-04 18:32:00,
2013-09-04 14:40:00,57.0,-99.9,-100.00,NE,39,7.0,10.0,-999,-99.99,,,-99.99,,2013-09-04 18:40:00,
2013-09-04 15:11:00,57.0,-99.9,-100.00,NE,39,7.0,10.0,-999,-99.99,,,-99.99,,2013-09-04 19:11:00,
2013-09-04 15:22:00,57.0,-99.9,-100.00,NE,39,7.0,10.0,-999,-99.99,,,-99.99,,2013-09-04 19:22:00,
2013-09-04 15:32:00,57.0,-99.9,-100.00,NE,39,7.0,10.0,-999,-99.99,,,-99.99,,2013-09-04 19:32:00,
2013-09-04 15:40:00,58.0,-99.9,-100.00,NNE,33,7.0,8.0,-999,-99.99,,,-99.99,,2013-09-04 19:40:00,
2013-09-04 16:12:00,58.0,-99.9,-100.00,NNE,33,7.0,8.0,-999,-99.99,,,-99.99,,2013-09-04 20:12:00,
2013-09-04 16:22:00,58.0,-99.9,-100.00,NNE,33,7.0,8.0,-999,-99.99,,,-99.99,,2013-09-04 20:22:00,
2013-09-04 16:32:00,58.0,-99.9,-100.00,NNE,33,7.0,8.0,-999,-99.99,,,-99.99,,2013-09-04 20:32:00,
2013-09-04 16:40:00,60.0,-99.9,-100.00,NE,53,5.0,7.0,-999,-99.99,,,-99.99,,2013-09-04 20:40:00,
2013-09-04 17:12:00,60.0,-99.9,-100.00,NE,53,5.0,7.0,-999,-99.99,,,-99.99,,2013-09-04 21:12:00,
2013-09-04 17:23:00,60.0,-99.9,-100.00,NE,53,5.0,7.0,-999,-99.99,,,-99.99,,2013-09-04 21:23:00,
2013-09-04 17:34:00,60.0,-99.9,-100.00,NE,53,5.0,7.0,-999,-99.99,,,-99.99,,2013-09-04 21:34:00,
2013-09-04 17:40:00,60.0,-99.9,-100.00,NNE,27,7.0,9.0,-999,-99.99,,,-99.99,,2013-09-04 21:40:00,
2013-09-04 18:23:00,60.0,-99.9,-100.00,NNE,27,7.0,9.0,-999,-99.99,,,-99.99,,2013-09-04 22:23:00,
2013-09-04 18:33:00,60.0,-99.9,-100.00,NNE,27,7.0,9.0,-999,-99.99,,,-99.99,,2013-09-04 22:33:00,
2013-09-04 18:40:00,63.0,-99.9,-100.00,NNE,30,4.0,6.0,-999,-99.99,,,-99.99,,2013-09-04 22:40:00,
2013-09-04 19:13:00,63.0,-99.9,-100.00,NNE,30,4.0,6.0,-999,-99.99,,,-99.99,,2013-09-04 23:13:00,
2013-09-04 19:22:00,63.0,-99.9,-100.00,NNE,30,4.0,6.0,-999,-99.99,,,-99.99,,2013-09-04 23:22:00,
2013-09-04 19:34:00,63.0,-99.9,-100.00,NNE,30,4.0,6.0,-999,-99.99,,,-99.99,,2013-09-04 23:34:00,
2013-09-04 19:40:00,56.0,-99.9,-100.00,NW,322,1.0,4.0,-999,-99.99,,,-99.99,,2013-09-04 23:40:00,
2013-09-04 20:22:00,56.0,-99.9,-100.00,NW,322,1.0,4.0,-999,-99.99,,,-99.99,,2013-09-05 00:22:00,
2013-09-04 20:32:00,56.0,-99.9,-100.00,NW,322,1.0,4.0,-999,-99.99,,,-99.99,,2013-09-05 00:32:00,
2013-09-04 20:40:00,52.0,-99.9,-100.00,SW,223,1.0,3.0,-999,-99.99,,,-99.99,,2013-09-05 00:40:00,
2013-09-04 21:12:00,52.0,-99.9,-100.00,SW,223,1.0,3.0,-999,-99.99,,,-99.99,,2013-09-05 01:12:00,
2013-09-04 21:22:00,52.0,-99.9,-100.00,SW,223,1.0,3.0,-999,-99.99,,,-99.99,,2013-09-05 01:22:00,
2013-09-04 21:32:00,52.0,-99.9,-100.00,SW,223,1.0,3.0,-999,-99.99,,,-99.99,,2013-09-05 01:32:00,
2013-09-04 21:40:00,49.0,-99.9,-100.00,WSW,238,2.0,3.0,-999,-99.99,,,-99.99,,2013-09-05 01:40:00,
2013-09-04 22:22:00,49.0,-99.9,-100.00,WSW,238,2.0,3.0,-999,-99.99,,,-99.99,,2013-09-05 02:22:00,
2013-09-04 22:32:00,49.0,-99.9,-100.00,WSW,238,2.0,3.0,-999,-99.99,,,-99.99,,2013-09-05 02:32:00,
2013-09-04 22:40:00,48.0,-99.9,-100.00,SW,234,3.0,4.0,-999,-99.99,,,-99.99,,2013-09-05 02:40:00,
2013-09-04 23:12:00,48.0,-99.9,-100.00,SW,234,3.0,4.0,-999,-99.99,,,-99.99,,2013-09-05 03:12:00,
2013-09-04 23:22:00,48.0,-99.9,-100.00,SW,234,3.0,4.0,-999,-99.99,,,-99.99,,2013-09-05 03:22:00,
2013-09-04 23:35:00,48.0,-99.9,-100.00,SW,234,3.0,4.0,-999,-99.99,,,-99.99,,2013-09-05 03:35:00,
2013-09-04 23:40:00,46.0,-99.9,-100.00,SSW,206,2.0,3.0,-999,-99.99,,,-99.99,,2013-09-05 03:40:00,